Time;durP1;ratioP1;P1;durP2;ratioP2;P2;SDS_P1;SDS_P2;PMS_P1;PMS_P2;Temp;Humidity;BMP_temperature;BMP_pressure;BME280_temperature;BME280_humidity;BME280_pressure;Samples;Min_cycle;Max_cycle;Signal;HPM_P1;HPM_P2
2023/12/08 00:01:14;;;;;;;;;13.33;11.00;;;;;8.96;73.74;100021.94;5037011;28;46234;-82
2023/12/08 00:03:40;;;;;;;;;9.67;9.67;;;;;9.06;73.85;100043.94;5037210;28;45375;-82
2023/12/08 00:06:07;;;;;;;;;17.67;14.67;;;;;9.06;73.96;100042.13;5038565;28;45430;-81
2023/12/08 00:08:32;;;;;;;;;9.67;8.67;;;;;8.84;73.90;100011.59;5035750;28;45351;-83
2023/12/08 00:10:58;;;;;;;;;12.33;11.00;;;;;9.16;74.31;100057.94;5034023;28;45371;-80
2023/12/08 00:13:23;;;;;;;;;10.67;9.00;;;;;9.03;74.23;100045.06;5036082;28;45528;-80
2023/12/08 00:15:49;;;;;;;;;17.33;15.00;;;;;9.25;73.92;100077.44;5034973;28;45481;-81
2023/12/08 00:18:14;;;;;;;;;10.00;9.00;;;;;9.13;73.81;100047.63;5035266;28;45439;-80
2023/12/08 00:20:39;;;;;;;;;11.33;11.00;;;;;9.13;73.90;100045.00;5036651;28;45542;-82
2023/12/08 00:23:06;;;;;;;;;10.33;9.33;;;;;9.39;73.39;100085.66;5037365;28;45506;-77
2023/12/08 00:25:31;;;;;;;;;12.33;11.33;;;;;9.40;73.86;100082.03;5036759;28;45300;-81
2023/12/08 00:27:57;;;;;;;;;9.67;9.00;;;;;9.44;73.78;100091.38;5034467;28;45523;-77
2023/12/08 00:30:22;;;;;;;;;10.33;9.67;;;;;9.45;73.60;100092.19;5034620;28;45967;-76
2023/12/08 00:32:47;;;;;;;;;12.00;10.67;;;;;9.49;73.67;100092.72;5036292;28;45332;-79
2023/12/08 00:35:13;;;;;;;;;10.00;9.67;;;;;9.50;73.56;100097.88;5039360;28;45446;-78
2023/12/08 00:37:38;;;;;;;;;10.00;8.67;;;;;8.95;73.48;100009.69;5039348;28;45380;-78
2023/12/08 00:40:05;;;;;;;;;9.67;9.67;;;;;9.50;73.65;100089.09;5037260;28;45474;-80
2023/12/08 00:42:31;;;;;;;;;11.00;9.33;;;;;9.55;73.60;100098.25;5035620;28;45651;-80
2023/12/08 00:44:56;;;;;;;;;14.33;11.00;;;;;8.79;73.70;99971.44;5036035;28;45453;-79
2023/12/08 00:47:22;;;;;;;;;13.67;10.33;;;;;9.15;73.79;100029.75;5041926;28;45312;-81
2023/12/08 00:49:47;;;;;;;;;8.33;7.33;;;;;9.60;73.59;100111.03;5040213;28;45451;-74
2023/12/08 00:52:12;;;;;;;;;10.67;8.33;;;;;9.02;73.78;100010.75;5042603;28;45589;-76
2023/12/08 00:54:38;;;;;;;;;12.67;11.33;;;;;9.65;73.93;100104.31;5037139;28;45372;-80
2023/12/08 00:57:03;;;;;;;;;10.00;10.00;;;;;9.59;73.50;100088.16;5035564;28;45608;-80
2023/12/08 00:59:29;;;;;;;;;13.33;11.67;;;;;8.92;73.55;99978.19;5016904;28;47787;-80
2023/12/08 01:01:54;;;;;;;;;9.00;9.00;;;;;9.49;73.87;100060.88;5034873;28;45445;-78
2023/12/08 01:04:19;;;;;;;;;9.67;8.67;;;;;9.55;73.60;100078.84;5034657;28;45749;-75
2023/12/08 01:06:45;;;;;;;;;11.00;11.00;;;;;9.28;73.89;100035.50;5035455;28;45288;-78
2023/12/08 01:09:10;;;;;;;;;12.00;9.33;;;;;9.56;73.89;100075.19;5037145;28;46392;-78
2023/12/08 01:11:35;;;;;;;;;11.67;9.00;;;;;9.75;73.87;100106.88;5037407;28;45344;-79
2023/12/08 01:14:01;;;;;;;;;12.33;10.67;;;;;9.76;73.80;100105.88;5020638;28;45528;-77
2023/12/08 01:16:26;;;;;;;;;11.00;11.00;;;;;8.95;73.64;99977.88;5038427;28;45357;-79
2023/12/08 01:18:51;;;;;;;;;8.33;8.33;;;;;9.48;73.88;100064.53;5038336;28;46077;-80
2023/12/08 01:21:17;;;;;;;;;11.00;11.00;;;;;9.24;73.82;100015.59;5038320;28;45475;-78
2023/12/08 01:23:42;;;;;;;;;14.67;12.33;;;;;9.73;73.75;100106.19;5040367;28;45286;-76
2023/12/08 01:26:11;;;;;;;;;8.67;8.67;;;;;9.70;74.30;100101.19;5042799;28;45292;-78
2023/12/08 01:28:36;;;;;;;;;8.33;8.33;;;;;9.54;73.96;100077.16;5047218;28;45553;-78
2023/12/08 01:31:03;;;;;;;;;12.00;9.33;;;;;9.79;73.64;100116.19;5046057;28;45437;-75
2023/12/08 01:33:28;;;;;;;;;9.00;8.00;;;;;9.80;74.05;100119.66;5044435;28;45248;-76
2023/12/08 01:35:54;;;;;;;;;11.33;9.00;;;;;9.68;74.33;100100.53;5025009;28;45588;-75
2023/12/08 01:38:19;;;;;;;;;6.67;6.67;;;;;9.86;74.45;100125.22;5039656;28;46098;-78
2023/12/08 01:40:45;;;;;;;;;12.33;8.67;;;;;9.90;74.18;100123.06;5038578;28;45390;-77
2023/12/08 01:43:14;;;;;;;;;7.33;6.33;;;;;9.85;74.08;100110.28;5047039;28;45268;-78
2023/12/08 01:45:40;;;;;;;;;9.00;7.00;;;;;9.89;73.94;100122.25;5054268;28;45510;-78
2023/12/08 01:48:06;;;;;;;;;8.00;7.00;;;;;9.75;73.85;100090.94;5045911;28;46280;-81
2023/12/08 01:50:33;;;;;;;;;5.33;5.33;;;;;9.85;73.91;100102.31;5039405;28;45383;-76
2023/12/08 01:53:00;;;;;;;;;5.33;5.33;;;;;9.95;74.47;100116.31;5039767;28;45522;-77
2023/12/08 01:55:26;;;;;;;;;7.67;6.67;;;;;9.81;73.58;100093.00;5041822;28;45948;-80
2023/12/08 01:57:52;;;;;;;;;4.67;4.67;;;;;10.06;74.05;100129.34;5041778;28;45517;-77
2023/12/08 02:00:18;;;;;;;;;9.00;6.00;;;;;10.07;74.07;100136.31;5040868;28;45278;-78
2023/12/08 02:02:43;;;;;;;;;8.33;6.00;;;;;10.01;73.64;100128.13;5039186;28;45285;-77
2023/12/08 02:05:09;;;;;;;;;6.67;5.33;;;;;9.97;73.69;100122.28;5038837;28;45456;-77
2023/12/08 02:07:35;;;;;;;;;5.67;5.67;;;;;10.06;74.42;100129.34;5038856;28;45546;-79
2023/12/08 02:10:01;;;;;;;;;5.67;5.00;;;;;10.17;74.27;100146.00;5037576;28;45806;-77
2023/12/08 02:12:26;;;;;;;;;6.33;5.67;;;;;10.04;74.22;100127.84;5037774;28;45435;-76
2023/12/08 02:14:52;;;;;;;;;4.00;4.00;;;;;10.19;74.07;100149.31;5037432;28;45498;-79
2023/12/08 02:17:24;;;;;;;;;6.00;6.00;;;;;10.02;74.11;100128.00;5037088;28;45632;-77
2023/12/08 02:19:51;;;;;;;;;5.67;5.00;;;;;10.13;74.40;100144.66;5037578;28;45507;-78
2023/12/08 02:22:17;;;;;;;;;6.00;4.67;;;;;10.13;74.23;100149.97;5037438;28;45343;-76
2023/12/08 02:24:43;;;;;;;;;1.67;0.67;;;;;10.14;74.40;100151.63;5039319;28;45526;-78
2023/12/08 02:27:10;;;;;;;;;5.00;5.00;;;;;10.27;74.25;100170.69;5040609;28;46397;-76
2023/12/08 02:29:36;;;;;;;;;4.33;4.00;;;;;10.29;74.56;100166.88;5044912;28;45324;-78
2023/12/08 02:32:13;;;;;;;;;4.33;4.00;;;;;10.25;74.45;100149.59;5051847;28;44715;-78
2023/12/08 02:34:41;;;;;;;;;3.00;3.00;;;;;10.33;73.90;100162.09;5052681;28;44718;-81
2023/12/08 02:37:09;;;;;;;;;8.00;6.00;;;;;10.29;73.97;100150.09;5037749;28;45543;-79
2023/12/08 02:39:37;;;;;;;;;4.67;4.00;;;;;10.37;74.33;100168.75;5036868;28;45407;-77
2023/12/08 02:42:03;;;;;;;;;6.67;6.67;;;;;10.29;74.21;100148.28;5036792;28;45574;-77
2023/12/08 02:44:28;;;;;;;;;5.67;5.67;;;;;10.33;74.22;100141.66;5037483;28;45280;-79
2023/12/08 02:46:53;;;;;;;;;6.00;5.00;;;;;10.34;74.22;100142.50;5036760;28;52150;-79
2023/12/08 02:49:19;;;;;;;;;6.00;6.00;;;;;10.44;73.82;100153.84;5036632;28;45295;-80
2023/12/08 02:51:44;;;;;;;;;7.00;6.00;;;;;10.46;74.01;100151.03;5018753;28;45301;-81
2023/12/08 02:54:09;;;;;;;;;7.67;7.67;;;;;10.40;74.22;100146.34;5037305;28;45490;-77
2023/12/08 02:56:35;;;;;;;;;5.00;5.00;;;;;10.45;74.29;100160.00;5036195;28;45415;-80
2023/12/08 02:59:02;;;;;;;;;8.67;6.00;;;;;10.42;74.14;100162.97;5019196;28;45487;-79
2023/12/08 03:01:27;;;;;;;;;6.00;5.00;;;;;10.42;74.40;100155.84;5037224;28;44790;-74
2023/12/08 03:03:52;;;;;;;;;7.67;6.33;;;;;10.29;74.29;100123.53;5036955;28;45533;-78
2023/12/08 03:06:24;;;;;;;;;9.00;5.33;;;;;10.37;74.28;100136.84;5035996;28;50352;-79
2023/12/08 03:08:49;;;;;;;;;5.33;4.67;;;;;10.53;73.90;100160.03;5035474;28;45356;-77
2023/12/08 03:11:14;;;;;;;;;7.33;7.00;;;;;10.48;74.21;100154.38;5035958;28;45666;-75
2023/12/08 03:13:40;;;;;;;;;5.00;5.00;;;;;10.55;74.48;100148.25;5035999;28;45517;-81
2023/12/08 03:16:06;;;;;;;;;6.00;6.00;;;;;10.43;74.47;100122.97;5040531;28;46211;-76
2023/12/08 03:18:32;;;;;;;;;5.67;5.33;;;;;10.41;74.69;100116.97;5043403;28;45296;-80
2023/12/08 03:20:58;;;;;;;;;6.67;6.00;;;;;10.56;74.49;100147.25;5036698;28;45393;-74
2023/12/08 03:23:23;;;;;;;;;9.00;4.00;;;;;10.49;74.60;100135.59;5041931;28;45339;-75
2023/12/08 03:25:49;;;;;;;;;9.67;7.00;;;;;10.58;74.60;100155.91;5019703;28;47072;-78
2023/12/08 03:28:14;;;;;;;;;7.33;6.33;;;;;10.61;74.40;100152.09;5037612;28;45486;-77
2023/12/08 03:30:39;;;;;;;;;8.00;5.00;;;;;10.55;74.13;100148.25;5018451;28;45600;-81
2023/12/08 03:33:04;;;;;;;;;9.67;7.00;;;;;10.56;74.58;100147.25;5019023;28;45341;-78
2023/12/08 03:35:30;;;;;;;;;7.00;7.00;;;;;10.62;74.96;100157.28;5036725;28;45363;-80
2023/12/08 03:37:55;;;;;;;;;6.00;6.00;;;;;10.43;74.49;100138.91;5036859;28;45421;-79
2023/12/08 03:40:22;;;;;;;;;6.00;6.00;;;;;10.39;74.96;100140.19;5039162;28;45481;-81
2023/12/08 03:42:47;;;;;;;;;7.00;5.67;;;;;10.47;74.99;100148.22;5042890;28;45434;-80
2023/12/08 03:45:13;;;;;;;;;5.00;5.00;;;;;10.65;74.69;100180.88;5047999;28;45177;-80
2023/12/08 03:47:38;;;;;;;;;5.67;5.67;;;;;10.65;74.74;100178.22;5050697;28;45287;-79
2023/12/08 03:50:04;;;;;;;;;8.67;7.67;;;;;10.66;74.91;100192.34;5046952;28;45011;-83
2023/12/08 03:52:29;;;;;;;;;5.00;5.00;;;;;10.36;74.81;100133.38;5038231;28;45372;-80
2023/12/08 03:54:55;;;;;;;;;5.67;5.33;;;;;10.69;74.71;100193.84;5036415;28;45457;-82
2023/12/08 03:57:20;;;;;;;;;7.33;4.67;;;;;10.71;74.94;100199.84;5036141;28;45620;-81
2023/12/08 03:59:46;;;;;;;;;5.33;5.00;;;;;10.71;74.43;100207.81;5038666;28;45342;-80
2023/12/08 04:02:12;;;;;;;;;5.33;5.00;;;;;10.68;74.38;100208.16;5037069;28;45510;-79
2023/12/08 04:04:37;;;;;;;;;4.67;4.67;;;;;10.62;74.32;100210.44;5035546;28;45285;-78
2023/12/08 04:07:02;;;;;;;;;6.67;4.67;;;;;10.63;75.00;100201.47;5036602;28;45395;-78
2023/12/08 04:09:29;;;;;;;;;6.00;4.33;;;;;10.73;75.03;100224.44;5017692;28;45487;-80
2023/12/08 04:11:55;;;;;;;;;9.00;6.00;;;;;10.46;75.01;100174.97;5035498;28;45403;-77
2023/12/08 04:14:20;;;;;;;;;3.00;3.00;;;;;10.44;75.08;100171.63;5036472;28;45634;-77
2023/12/08 04:16:46;;;;;;;;;7.00;7.00;;;;;10.36;75.27;100167.06;5035457;28;45446;-79
2023/12/08 04:19:12;;;;;;;;;4.00;4.00;;;;;10.75;74.89;100236.59;5035582;28;45326;-77
2023/12/08 04:21:38;;;;;;;;;4.00;4.00;;;;;10.71;75.11;100229.09;5035938;28;45573;-78
2023/12/08 04:24:03;;;;;;;;;4.67;4.67;;;;;10.77;75.02;100245.25;5035300;28;46353;-77
2023/12/08 04:26:29;;;;;;;;;5.67;4.67;;;;;10.61;74.99;100226.53;5040646;28;46120;-80
2023/12/08 04:28:54;;;;;;;;;4.67;4.67;;;;;10.73;75.11;100243.06;5042484;28;45561;-76
2023/12/08 04:31:20;;;;;;;;;4.33;4.33;;;;;10.63;75.19;100238.69;5040727;28;45736;-74
2023/12/08 04:33:47;;;;;;;;;5.67;3.00;;;;;10.61;74.96;100231.84;5021703;28;46667;-80
2023/12/08 04:36:13;;;;;;;;;8.67;6.33;;;;;10.73;75.09;100245.72;5039140;28;45426;-75
2023/12/08 04:38:39;;;;;;;;;7.00;5.00;;;;;10.65;75.79;100228.75;5038781;28;45348;-76
2023/12/08 04:41:04;;;;;;;;;5.33;4.00;;;;;10.72;75.41;100230.75;5037008;28;45585;-76
2023/12/08 04:43:38;;;;;;;;;7.67;4.67;;;;;10.64;75.48;100223.59;5038447;28;46301;-78
2023/12/08 04:46:04;;;;;;;;;5.33;4.33;;;;;10.70;75.25;100240.72;5038228;28;45557;-76
2023/12/08 04:48:29;;;;;;;;;6.00;5.00;;;;;10.84;75.22;100264.91;5037738;28;45495;-77
2023/12/08 04:50:55;;;;;;;;;4.33;4.33;;;;;10.83;75.29;100259.75;5038360;28;45529;-76
2023/12/08 04:53:20;;;;;;;;;6.67;5.33;;;;;10.85;75.15;100260.44;5037826;28;46737;-76
2023/12/08 04:55:46;;;;;;;;;6.00;5.33;;;;;10.74;75.42;100250.03;5037639;28;45411;-80
2023/12/08 04:58:12;;;;;;;;;6.00;4.67;;;;;10.87;74.99;100255.78;5038082;28;45213;-77
2023/12/08 05:00:38;;;;;;;;;5.00;5.00;;;;;10.85;75.03;100252.44;5038048;28;45622;-77
2023/12/08 05:03:03;;;;;;;;;6.00;4.00;;;;;10.89;75.48;100270.59;5037932;28;46404;-77
2023/12/08 05:05:28;;;;;;;;;6.33;5.00;;;;;10.81;75.15;100257.25;5041705;28;45331;-78
2023/12/08 05:07:56;;;;;;;;;2.00;2.00;;;;;10.85;75.08;100268.41;5039634;28;45264;-82
2023/12/08 05:10:22;;;;;;;;;6.67;6.00;;;;;10.90;74.99;100282.06;5039012;28;45347;-76
2023/12/08 05:12:47;;;;;;;;;9.00;6.00;;;;;10.81;75.28;100267.03;5018387;28;46660;-80
2023/12/08 05:15:13;;;;;;;;;6.00;4.00;;;;;10.81;74.80;100267.03;5037692;28;45339;-80
2023/12/08 05:17:38;;;;;;;;;8.33;6.00;;;;;10.79;75.02;100274.34;5038012;28;45601;-75
2023/12/08 05:20:05;;;;;;;;;8.67;6.00;;;;;10.78;74.80;100275.31;5038315;28;45579;-75
2023/12/08 05:22:30;;;;;;;;;4.00;4.00;;;;;10.83;75.04;100281.03;5037200;28;46411;-76
2023/12/08 05:24:56;;;;;;;;;5.00;5.00;;;;;10.74;75.60;100266.84;5036736;28;45341;-76
2023/12/08 05:27:21;;;;;;;;;8.00;7.00;;;;;10.80;75.09;100265.34;5036705;28;45367;-76
2023/12/08 05:29:46;;;;;;;;;10.67;7.00;;;;;10.66;75.08;100254.31;5037243;28;45553;-76
2023/12/08 05:32:12;;;;;;;;;7.33;6.33;;;;;10.80;75.59;100281.31;5037170;28;45323;-75
2023/12/08 05:34:37;;;;;;;;;5.67;5.67;;;;;10.85;75.11;100295.00;5037179;28;45538;-77
2023/12/08 05:37:03;;;;;;;;;5.67;4.67;;;;;10.85;75.43;100301.16;5037681;28;45529;-75
2023/12/08 05:39:28;;;;;;;;;6.33;5.33;;;;;10.83;75.67;100289.84;5019713;28;45293;-75
2023/12/08 05:41:53;;;;;;;;;8.00;6.33;;;;;10.42;75.34;100235.56;5019120;28;46298;-74
2023/12/08 05:44:20;;;;;;;;;8.33;7.00;;;;;10.70;75.48;100283.25;5038566;28;45397;-77
2023/12/08 05:46:45;;;;;;;;;12.00;7.00;;;;;10.58;75.24;100272.88;5040387;28;45539;-76
2023/12/08 05:49:10;;;;;;;;;6.67;4.33;;;;;10.84;75.40;100306.63;5041457;28;45397;-75
2023/12/08 05:51:35;;;;;;;;;6.33;5.33;;;;;10.83;75.74;100308.44;5043736;28;45496;-77
2023/12/08 05:54:01;;;;;;;;;8.33;5.33;;;;;10.86;75.42;100307.31;5054715;28;45449;-80
2023/12/08 05:56:26;;;;;;;;;5.00;5.00;;;;;10.63;75.72;100277.75;5041223;28;45797;-82
2023/12/08 05:58:51;;;;;;;;;6.67;4.67;;;;;10.86;75.37;100307.31;5039387;28;45356;-77
2023/12/08 06:01:18;;;;;;;;;7.00;6.00;;;;;10.72;75.26;100291.91;5024041;28;47084;-79
2023/12/08 06:03:44;;;;;;;;;6.00;5.67;;;;;10.29;75.86;100224.50;5042008;28;45303;-80
2023/12/08 06:06:09;;;;;;;;;7.00;6.00;;;;;10.86;75.59;100320.59;5020726;28;45372;-82
2023/12/08 06:08:34;;;;;;;;;7.00;7.00;;;;;10.74;75.89;100308.53;5039260;28;45522;-77
2023/12/08 06:11:00;;;;;;;;;7.67;7.00;;;;;10.87;75.45;100324.94;5037967;28;45574;-80
2023/12/08 06:13:26;;;;;;;;;7.67;6.67;;;;;10.84;75.89;100325.25;5019586;28;45428;-80
2023/12/08 06:15:51;;;;;;;;;8.67;8.00;;;;;10.70;76.10;100296.56;5037340;28;45376;-81
2023/12/08 06:18:16;;;;;;;;;6.67;5.67;;;;;10.86;75.54;100339.22;5037332;28;45250;-84
2023/12/08 06:20:42;;;;;;;;;5.33;5.33;;;;;10.86;75.89;100332.06;5037411;28;45593;-79
2023/12/08 06:23:07;;;;;;;;;8.33;7.33;;;;;10.71;75.90;100317.66;5037205;28;45356;-82
2023/12/08 06:25:32;;;;;;;;;8.00;6.67;;;;;10.63;75.63;100309.63;5037221;28;45382;-82
2023/12/08 06:27:57;;;;;;;;;8.67;8.00;;;;;10.67;76.22;100316.31;5037518;28;45378;-83
2023/12/08 06:30:24;;;;;;;;;9.67;8.67;;;;;10.72;75.82;100322.00;5019351;28;45944;-81
2023/12/08 06:32:49;;;;;;;;;8.33;8.33;;;;;10.89;76.09;100360.19;5023615;28;45320;-82
2023/12/08 06:35:15;;;;;;;;;8.33;7.33;;;;;10.91;75.52;100355.53;5024789;28;45319;-81
2023/12/08 06:37:40;;;;;;;;;13.00;13.00;;;;;10.24;76.03;100258.69;5020843;28;45380;-81
2023/12/08 06:40:07;;;;;;;;;10.33;8.67;;;;;10.90;76.02;100360.00;5037796;28;46062;-78
2023/12/08 06:42:32;;;;;;;;;11.33;9.00;;;;;10.90;75.96;100361.84;5036906;28;45271;-83
2023/12/08 06:44:58;;;;;;;;;8.33;8.00;;;;;10.65;76.13;100324.44;5019462;28;45814;-81
2023/12/08 06:47:23;;;;;;;;;9.00;8.00;;;;;10.53;75.31;100301.75;5038470;28;45513;-82
2023/12/08 06:49:49;;;;;;;;;7.33;6.00;;;;;10.92;75.40;100374.00;5043491;28;46485;-82
2023/12/08 06:52:14;;;;;;;;;12.00;12.00;;;;;10.78;75.83;100341.78;5045374;28;45260;-80
2023/12/08 06:54:40;;;;;;;;;8.33;8.33;;;;;10.71;75.75;100330.13;5042292;28;45379;-78
2023/12/08 06:57:05;;;;;;;;;12.00;8.67;;;;;10.81;75.07;100347.66;5024553;28;45407;-78
2023/12/08 06:59:32;;;;;;;;;8.33;6.00;;;;;10.91;75.62;100364.34;5042610;28;45448;-81
2023/12/08 07:01:58;;;;;;;;;5.67;5.67;;;;;10.91;75.61;100369.66;5040564;28;45481;-81
2023/12/08 07:04:23;;;;;;;;;6.33;5.33;;;;;11.02;75.09;100397.84;5039945;28;45213;-80
2023/12/08 07:06:48;;;;;;;;;7.67;7.33;;;;;10.99;75.14;100387.50;5029485;28;45462;-78
2023/12/08 07:09:14;;;;;;;;;3.33;3.00;;;;;10.86;75.12;100371.13;5049823;28;46367;-81
2023/12/08 07:11:39;;;;;;;;;7.33;7.33;;;;;10.96;74.92;100393.13;5049862;28;44738;-80
2023/12/08 07:14:04;;;;;;;;;11.00;9.00;;;;;10.95;75.22;100391.47;5049346;28;45557;-79
2023/12/08 07:16:30;;;;;;;;;8.33;8.33;;;;;11.05;75.47;100413.50;5040547;28;45350;-80
2023/12/08 07:18:55;;;;;;;;;11.33;9.33;;;;;11.07;75.43;100403.53;5031879;28;47905;-86
2023/12/08 07:21:20;;;;;;;;;8.33;7.00;;;;;10.69;75.17;100332.09;5051757;28;45301;-78
2023/12/08 07:23:46;;;;;;;;;10.33;8.00;;;;;10.61;75.32;100331.06;5047122;28;45388;-80
2023/12/08 07:26:11;;;;;;;;;10.00;9.00;;;;;11.05;75.28;100410.84;5024167;28;45564;-85
2023/12/08 07:28:37;;;;;;;;;14.00;10.67;;;;;10.80;75.41;100382.34;5043351;28;46006;-81
2023/12/08 07:31:03;;;;;;;;;11.00;9.00;;;;;10.96;75.48;100414.41;5022799;28;45384;-82
2023/12/08 07:33:28;;;;;;;;;10.00;8.00;;;;;11.03;75.42;100435.94;5040027;28;45443;-82
2023/12/08 07:35:54;;;;;;;;;13.00;10.67;;;;;10.85;75.97;100407.53;5045337;28;45364;-79
2023/12/08 07:38:19;;;;;;;;;11.33;10.67;;;;;10.97;75.89;100432.03;5051303;28;45380;-82
2023/12/08 07:40:45;;;;;;;;;16.00;11.00;;;;;11.06;75.53;100448.91;5049322;28;44783;-78
2023/12/08 07:43:11;;;;;;;;;12.67;10.00;;;;;10.94;75.27;100429.69;5049378;28;45213;-79
2023/12/08 07:45:36;;;;;;;;;11.67;9.67;;;;;11.08;75.98;100458.41;5037738;28;45281;-75
2023/12/08 07:48:02;;;;;;;;;8.67;7.67;;;;;11.08;75.69;100453.09;5034106;28;45486;-78
2023/12/08 07:50:27;;;;;;;;;11.33;6.67;;;;;10.81;75.21;100397.31;5022847;28;45316;-78
2023/12/08 07:52:53;;;;;;;;;9.33;9.33;;;;;10.91;75.74;100417.53;5016987;28;45392;-77
2023/12/08 07:55:19;;;;;;;;;7.67;6.67;;;;;11.14;75.11;100460.44;5015851;28;46086;-80
2023/12/08 07:57:44;;;;;;;;;10.67;7.33;;;;;11.16;75.00;100453.13;5014699;28;45503;-77
2023/12/08 08:00:10;;;;;;;;;7.33;5.33;;;;;11.14;74.91;100459.59;5036068;28;45396;-79
2023/12/08 08:02:36;;;;;;;;;11.00;10.00;;;;;11.16;74.74;100463.78;5019181;28;45428;-77
2023/12/08 08:05:03;;;;;;;;;12.33;9.00;;;;;11.17;75.28;100472.59;5036648;28;45329;-78
2023/12/08 08:07:28;;;;;;;;;9.33;7.00;;;;;11.17;75.11;100484.06;5036347;28;45489;-76
2023/12/08 08:09:53;;;;;;;;;7.67;6.00;;;;;10.90;74.86;100431.00;5036045;28;45420;-77
2023/12/08 08:12:19;;;;;;;;;7.33;6.00;;;;;11.14;75.33;100480.91;5036726;28;45465;-77
2023/12/08 08:14:45;;;;;;;;;7.67;6.33;;;;;11.02;75.07;100456.38;4999706;28;45703;-76
2023/12/08 08:17:11;;;;;;;;;9.00;8.00;;;;;11.20;74.48;100481.09;5017550;28;45572;-78
2023/12/08 08:19:36;;;;;;;;;8.67;8.00;;;;;11.18;74.63;100482.25;5032698;28;45497;-77
2023/12/08 08:22:03;;;;;;;;;11.33;8.00;;;;;11.12;74.86;100483.72;5019375;28;45467;-79
2023/12/08 08:24:30;;;;;;;;;12.33;11.67;;;;;11.14;74.86;100486.22;5034896;28;45383;-77
2023/12/08 08:26:56;;;;;;;;;7.00;6.00;;;;;11.10;74.99;100474.22;5035984;28;46184;-77
2023/12/08 08:29:22;;;;;;;;;11.00;7.00;;;;;11.15;74.83;100482.56;5036071;28;45385;-79
2023/12/08 08:31:47;;;;;;;;;12.33;10.00;;;;;10.90;75.07;100441.63;5019700;28;45447;-81
2023/12/08 08:34:13;;;;;;;;;13.67;12.33;;;;;10.82;74.71;100433.59;5042075;28;45564;-79
2023/12/08 08:36:38;;;;;;;;;12.00;10.00;;;;;11.17;75.07;100502.69;5038500;28;45463;-79
2023/12/08 08:39:04;;;;;;;;;7.67;6.00;;;;;10.97;74.43;100474.59;5038148;28;45407;-79
2023/12/08 08:41:30;;;;;;;;;6.00;6.00;;;;;11.25;74.74;100529.41;5038212;28;45351;-77
2023/12/08 08:43:55;;;;;;;;;8.00;6.67;;;;;11.22;74.37;100515.56;5038486;28;45418;-78
2023/12/08 08:46:21;;;;;;;;;12.00;11.00;;;;;11.22;74.77;100489.78;5037207;28;45903;-76
2023/12/08 08:48:46;;;;;;;;;5.67;5.67;;;;;11.18;74.78;100488.41;5018313;28;45462;-79
2023/12/08 08:51:12;;;;;;;;;9.33;9.33;;;;;11.03;74.35;100466.03;5038291;28;45284;-78
2023/12/08 08:53:37;;;;;;;;;14.00;12.00;;;;;11.33;74.51;100525.97;5037459;28;45368;-77
2023/12/08 08:56:03;;;;;;;;;11.00;8.33;;;;;11.27;74.81;100503.47;5037503;28;46005;-80
2023/12/08 08:58:29;;;;;;;;;15.00;8.33;;;;;10.82;75.22;100417.63;5037551;28;45359;-77
2023/12/08 09:00:54;;;;;;;;;6.67;6.33;;;;;11.30;74.89;100501.47;5036408;28;45351;-79
2023/12/08 09:03:20;;;;;;;;;14.00;7.00;;;;;10.97;74.53;100442.69;5037340;28;45213;-81
2023/12/08 09:05:45;;;;;;;;;12.67;8.00;;;;;11.31;74.79;100493.34;5039710;28;45909;-76
2023/12/08 09:08:11;;;;;;;;;9.33;7.67;;;;;11.42;74.17;100519.72;5038691;28;45561;-78
2023/12/08 09:10:37;;;;;;;;;9.67;7.33;;;;;11.21;74.64;100476.63;5028030;28;45479;-83
2023/12/08 09:13:02;;;;;;;;;10.00;10.00;;;;;11.45;74.77;100510.59;5028317;28;45225;-81
2023/12/08 09:15:28;;;;;;;;;11.00;8.33;;;;;11.43;74.35;100508.09;5040639;28;45289;-81
2023/12/08 09:17:54;;;;;;;;;9.33;9.33;;;;;11.46;74.65;100513.09;5042855;28;45395;-81
2023/12/08 09:20:20;;;;;;;;;12.00;9.33;;;;;11.50;74.77;100510.94;5042145;28;45480;-81
2023/12/08 09:22:46;;;;;;;;;8.00;8.00;;;;;11.52;74.28;100511.63;5048564;28;44648;-80
2023/12/08 09:25:11;;;;;;;;;9.00;8.00;;;;;11.05;74.25;100432.13;5036594;28;46049;-79
2023/12/08 09:27:37;;;;;;;;;10.33;8.33;;;;;10.89;74.39;100402.72;5025777;28;45380;-81
2023/12/08 09:30:03;;;;;;;;;9.00;9.00;;;;;11.34;74.27;100465.56;5043028;28;44758;-80
2023/12/08 09:32:29;;;;;;;;;13.00;8.33;;;;;11.20;74.30;100454.50;5042184;28;45358;-81
2023/12/08 09:34:54;;;;;;;;;9.00;7.00;;;;;11.60;74.46;100519.66;5040153;28;45419;-80
2023/12/08 09:37:20;;;;;;;;;8.33;8.00;;;;;11.18;74.47;100464.47;5039362;28;44936;-81
2023/12/08 09:39:45;;;;;;;;;10.67;9.67;;;;;11.62;74.56;100525.69;5043164;28;45507;-86
2023/12/08 09:42:38;;;;;;;;;8.67;8.67;;;;;11.57;73.76;100514.66;5042102;28;45379;-80
2023/12/08 09:45:09;;;;;;;;;11.33;9.67;;;;;11.49;74.30;100501.28;5039956;28;46018;-81
2023/12/08 09:47:36;;;;;;;;;13.33;10.67;;;;;11.60;74.13;100514.34;5044590;28;45456;-82
2023/12/08 09:50:05;;;;;;;;;14.33;12.67;;;;;11.74;73.75;100531.56;5050528;28;45634;-83
2023/12/08 09:52:33;;;;;;;;;11.67;9.67;;;;;11.43;74.27;100473.47;5027743;28;45696;-81
2023/12/08 09:54:59;;;;;;;;;10.33;10.00;;;;;11.80;74.17;100536.31;5040575;28;45495;-84
2023/12/08 09:57:27;;;;;;;;;13.00;9.67;;;;;11.43;74.07;100469.97;5039018;28;45528;-81
2023/12/08 09:59:54;;;;;;;;;14.33;12.33;;;;;11.71;73.71;100518.59;5040171;28;45443;-82
2023/12/08 10:02:19;;;;;;;;;10.00;9.00;;;;;11.85;73.50;100545.50;5041211;28;45527;-81
2023/12/08 10:04:45;;;;;;;;;12.33;8.33;;;;;11.84;73.72;100543.84;5040084;28;45915;-80
2023/12/08 10:07:12;;;;;;;;;8.67;7.67;;;;;11.56;73.94;100494.34;5039013;28;45394;-78
2023/12/08 10:09:37;;;;;;;;;11.33;10.00;;;;;11.82;73.42;100542.34;5039470;28;45600;-81
2023/12/08 10:12:03;;;;;;;;;11.00;9.67;;;;;11.74;73.82;100532.41;5038974;28;45343;-80
2023/12/08 10:14:29;;;;;;;;;9.33;7.00;;;;;11.75;73.33;100534.09;5038651;28;46553;-78
2023/12/08 10:16:55;;;;;;;;;14.00;11.67;;;;;11.57;73.99;100504.00;5038300;28;45405;-79
2023/12/08 10:19:21;;;;;;;;;8.00;7.67;;;;;11.72;73.95;100533.56;5040886;28;45491;-78
2023/12/08 10:22:02;;;;;;;;;14.67;9.00;;;;;11.79;73.75;100543.47;5044550;28;44789;-81
2023/12/08 10:24:31;;;;;;;;;11.00;9.00;;;;;11.80;73.88;100561.09;5038713;28;45509;-78
2023/12/08 10:27:00;;;;;;;;;10.67;9.67;;;;;11.75;74.05;100543.91;5020326;28;45391;-82
2023/12/08 10:29:30;;;;;;;;;11.67;10.33;;;;;11.86;73.92;100546.34;5019511;28;45707;-79
2023/12/08 10:31:57;;;;;;;;;9.67;9.33;;;;;11.58;73.49;100500.34;5020114;28;45583;-79
2023/12/08 10:34:23;;;;;;;;;11.33;10.00;;;;;11.79;73.71;100516.81;5020589;28;45518;-79
2023/12/08 10:36:49;;;;;;;;;10.00;8.33;;;;;11.96;73.49;100535.56;5037174;28;45552;-80
2023/12/08 10:39:17;;;;;;;;;10.00;10.00;;;;;11.87;73.09;100506.22;5018160;28;45486;-78
2023/12/08 10:41:42;;;;;;;;;11.00;8.33;;;;;12.09;73.07;100526.16;5038448;28;45276;-82
2023/12/08 10:44:08;;;;;;;;;15.00;8.33;;;;;11.59;72.96;100444.28;5041835;28;45621;-77
2023/12/08 10:46:35;;;;;;;;;11.00;6.67;;;;;12.04;72.50;100508.97;5043871;28;45311;-81
2023/12/08 10:49:01;;;;;;;;;6.33;6.33;;;;;12.23;72.62;100537.22;5021426;28;45426;-78
2023/12/08 10:51:29;;;;;;;;;12.00;8.33;;;;;12.28;72.16;100542.91;5038118;28;45245;-76
2023/12/08 10:53:55;;;;;;;;;8.33;7.67;;;;;12.31;72.25;100540.75;5036942;28;46851;-79
2023/12/08 10:56:21;;;;;;;;;7.67;7.00;;;;;12.01;72.05;100482.63;5016469;28;45338;-76
2023/12/08 10:58:55;;;;;;;;;11.00;8.67;;;;;12.32;71.52;100523.75;5018473;28;45404;-80
2023/12/08 11:01:21;;;;;;;;;9.00;6.33;;;;;12.04;71.60;100471.69;5037112;28;45363;-82
2023/12/08 11:03:51;;;;;;;;;11.00;7.67;;;;;12.33;71.58;100522.75;5039653;28;45291;-84
2023/12/08 11:06:28;;;;;;;;;6.00;6.00;;;;;12.46;71.19;100535.66;5021924;28;44848;-78
2023/12/08 11:08:59;;;;;;;;;8.67;8.67;;;;;12.25;71.76;100496.09;5019633;28;46065;-81
2023/12/08 11:11:26;;;;;;;;;12.00;11.67;;;;;12.54;71.31;100542.84;5037470;28;45494;-81
2023/12/08 11:14:04;;;;;;;;;72.75;62.25;;;;;12.57;71.87;100534.50;5039287;28;45597;-81
2023/12/08 11:16:33;;;;;;;;;13.00;10.67;;;;;12.55;71.48;100531.16;5044122;28;45335;-80